Main page
METAR-TAF:

METAR-TAF

Airports :

Lille, France

Lille Airport

latitude: 50-34N, longitude: 003-06E, elevation: 48 m

Current weather observation

The report was made 18 minutes ago, at 09:00 UTC
Wind 10 kt from the Southwest
Temperature 13°C
Humidity 72%
Pressure 1025 hPa
Visibility 10 km or more
Broken clouds at a height of 2500 ft
Overcast at a height of 3500 ft

METAR: LFQQ 290900Z AUTO 23010KT 9999 BKN025 OVC035 13/08 Q1025 NOSIG

Time: 11:18 (09:18 UTC)

Forecast

The report was made 4 hours and 18 minutes ago, at 05:00 UTC
Forecast valid from 29 at 06 UTC to 30 at 12 UTC
Wind 8 kt from the South/Southwest
Visibility 10 km or more
no clouds below 1500 m and no cumulonimbus

TAF: LFQQ 290500Z 2906/3012 21008KT CAVOK

Weather observations and forecasts of more than 4000 airports (METAR and TAF reports).

The available stations are represented by yellow and red dots on the map.

Hover mouse over dot to see the name of the station.

Then click to see weather observations and forecasts.

To change the map : click on the green buttons with a black cross to zoom in, on the green button with a dash to zoom out, or on the green arrows for adjacent maps.


METAR-TAF: